TFM - Tactical Decision Aid
ID: Runway Winds: CIG/VIS Threshold:

KMEM - Memphis Intl, TN, US

Updated at: 1104 UTC 15 Jul 2020
Latest TAF at: 0908 UTC 15 Jul 2020

TAF Board

Time1054Z 15/12Z 15/13Z 15/14Z 15/15Z 15/16Z 15/17Z 15/18Z 15/19Z 15/20Z 15/21Z 15/22Z 15/23Z 16/00Z>>
Type OBS PRVL PRVL PRVL PRVL PRVL PRVL PRVL PRVL PRVL PRVL PRVL PRVL PRVL
VIS 10 >6 >6 >6 >6 >6 >6 >6 >6 >6 >6 >6 >6 >6
CIG -- 60 60 60 60 150 150 150 150 150 150 150 150 150
Cover FEW BKN BKN BKN BKN BKN BKN BKN BKN BKN BKN BKN BKN BKN
FltCat VFR VFR VFR VFR VFR VFR VFR VFR VFR VFR VFR VFR VFR VFR
WX -- -- -- -- -- -- -- -- -- -- -- -- -- --
WDir VRB 170 170 170 170 190 190 190 190 190 190 190 190 190
WSpd 0 5 5 5 5 9 9 9 9 9 9 9 9 9
WGst -- -- -- -- -- -- -- -- -- -- -- -- -- --

TDA Impact Legend

  None Marginal Slight Moderate High
Visibility (sm) >5 3≤X≤5 1≤X<3 0.5≤X<1 <0.5
Ceiling (100 ft) >30 10≤X≤30 4≤X<10 2≤X<4 <2
Wind Speed (kt) <15 15≤X<25 25≤X<30 ≥30
Wind Gust (kt) <15 15≤X<25 25≤X<35 ≥35
Weather No Wx Reported VCTS -TS,-FZRA TS,FZRA +TS,+FZRA
TAF
KMEM 150908Z 1509/1612 17005KT P6SM BKN060
  FM151600 19009KT P6SM SCT040 BKN150
  FM160100 18006KT P6SM SCT040 BKN150


METAR
KMEM 151054Z 00000KT 10SM FEW060 FEW250 26/21 A2999 RMK AO2 SLP150 T02610206
KMEM 150954Z 18008KT 10SM BKN060 27/21 A2997 RMK AO2 SLP143 T02670206
KMEM 150854Z 17007KT 10SM BKN060 27/21 A2996 RMK AO2 SLP139 T02670206 58003
KMEM 150754Z 17005KT 10SM FEW055 26/21 A2996 RMK AO2 SLP141 T02610206

Radar Display
Forecast Discussion